createdAt,value
2019-03-12T00:01:19.191Z,85.80
2019-03-12T00:04:09.560Z,86.30
2019-03-12T00:06:43.668Z,86.20
2019-03-12T00:09:18.133Z,85.70
2019-03-12T00:11:51.869Z,85.30
2019-03-12T00:14:45.238Z,85.60
2019-03-12T00:17:04.931Z,86.50
2019-03-12T00:19:38.959Z,87.00
2019-03-12T00:22:10.091Z,87.10
2019-03-12T00:24:39.238Z,87.40
2019-03-12T00:27:10.589Z,87.80
2019-03-12T00:29:39.939Z,88.30
2019-03-12T00:32:08.776Z,88.80
2019-03-12T00:34:42.610Z,88.80
2019-03-12T00:37:11.689Z,88.80
2019-03-12T00:39:40.809Z,88.20
2019-03-12T00:42:09.834Z,88.30
2019-03-12T00:44:38.814Z,87.50
2019-03-12T00:47:07.764Z,87.30
2019-03-12T00:49:36.624Z,87.80
2019-03-12T00:52:17.051Z,88.10
2019-03-12T01:28:36.902Z,86.10
2019-03-12T01:32:39.978Z,86.20
2019-03-12T01:35:18.606Z,86.30
2019-03-12T01:40:57.314Z,86.90
2019-03-12T01:43:31.656Z,86.90
2019-03-12T01:46:00.620Z,86.40
2019-03-12T01:48:40.760Z,86.20
2019-03-12T01:52:04.034Z,86.30
2019-03-12T01:54:32.170Z,86.20
2019-03-12T02:03:23.537Z,86.70
2019-03-12T02:43:12.367Z,86.60
2019-03-12T02:45:45.328Z,86.90
2019-03-12T02:48:14.412Z,86.30
2019-03-12T02:50:43.395Z,85.90
2019-03-12T02:53:12.331Z,85.90
2019-03-12T02:55:50.294Z,86.20
2019-03-12T02:58:27.626Z,85.90
2019-03-12T03:01:07.633Z,85.80
2019-03-12T03:03:36.599Z,85.10
2019-03-12T03:06:07.386Z,85.70
2019-03-12T03:08:37.260Z,85.20
2019-03-12T04:06:38.080Z,78.10
2019-03-12T04:09:18.164Z,78.10
2019-03-12T04:42:27.906Z,75.60
2019-03-12T04:45:11.479Z,75.30
2019-03-12T04:50:57.499Z,75.50
2019-03-12T04:53:29.725Z,75.30
2019-03-12T04:55:58.455Z,75.00
2019-03-12T04:58:27.353Z,75.20
2019-03-12T05:00:58.410Z,75.40
2019-03-12T05:03:27.078Z,75.00
2019-03-12T05:05:55.826Z,75.00
2019-03-12T05:08:24.738Z,75.00
2019-03-12T05:11:02.261Z,75.10
2019-03-12T05:13:51.975Z,74.80
2019-03-12T05:16:16.862Z,74.70
2019-03-12T05:18:45.860Z,74.60
2019-03-12T05:21:14.682Z,74.30
2019-03-12T05:23:43.487Z,74.70
2019-03-12T05:26:12.328Z,74.30
2019-03-12T05:28:41.040Z,74.10
2019-03-12T05:31:11.690Z,74.20
2019-03-12T05:33:40.166Z,74.30
2019-03-12T05:36:09.062Z,74.10
2019-03-12T05:38:38.056Z,74.20
2019-03-12T05:41:06.867Z,74.40
2019-03-12T05:43:35.631Z,73.90
2019-03-12T05:46:11.404Z,73.50
2019-03-12T05:48:40.749Z,73.60
2019-03-12T05:51:11.591Z,73.80
2019-03-12T05:53:50.927Z,73.70
2019-03-12T05:56:26.920Z,72.80
2019-03-12T05:58:55.947Z,73.10
2019-03-12T06:01:36.804Z,73.10
2019-03-12T06:04:11.486Z,72.90
2019-03-12T06:07:12.356Z,72.80
2019-03-12T06:09:42.470Z,73.00
2019-03-12T06:12:11.434Z,72.00
2019-03-12T06:14:40.194Z,72.20
2019-03-12T06:17:10.848Z,72.00
2019-03-12T06:19:45.578Z,71.90
2019-03-12T06:22:19.895Z,72.00
2019-03-12T06:24:50.192Z,71.70
2019-03-12T06:27:20.638Z,71.50
2019-03-12T06:29:49.521Z,71.70
2019-03-12T06:32:22.694Z,71.20
2019-03-12T06:34:58.514Z,71.20
2019-03-12T06:37:34.989Z,70.80
2019-03-12T06:40:06.626Z,70.80
2019-03-12T06:42:40.095Z,70.50
2019-03-12T06:45:13.558Z,70.60
2019-03-12T06:48:24.054Z,70.40
2019-03-12T06:51:00.335Z,71.10
2019-03-12T06:53:39.561Z,70.80
2019-03-12T06:56:26.545Z,70.70
2019-03-12T06:59:13.098Z,70.80
2019-03-12T07:02:05.041Z,70.90
2019-03-12T07:08:06.255Z,70.50
2019-03-12T07:10:38.363Z,70.50
2019-03-12T07:13:20.466Z,70.60
2019-03-12T07:15:55.599Z,71.10
2019-03-12T07:18:29.009Z,70.70
2019-03-12T07:21:08.415Z,70.30
2019-03-12T07:23:55.113Z,70.50
2019-03-12T07:26:34.106Z,70.40
2019-03-12T07:29:19.325Z,70.80
2019-03-12T07:31:55.369Z,70.20
2019-03-12T07:34:37.149Z,70.50
2019-03-12T07:37:31.236Z,70.30
2019-03-12T07:40:44.798Z,70.30
2019-03-12T07:43:10.951Z,70.20
2019-03-12T07:45:52.180Z,70.50
2019-03-12T07:51:35.044Z,70.80
2019-03-12T08:10:52.455Z,69.60
2019-03-12T08:13:34.491Z,68.50
2019-03-12T08:16:13.908Z,68.70
2019-03-12T08:18:47.122Z,69.20
2019-03-12T08:21:22.711Z,67.70
2019-03-12T08:23:52.236Z,68.30
2019-03-12T08:26:38.905Z,67.80
2019-03-12T08:29:10.712Z,66.60
2019-03-12T08:31:56.008Z,66.60
2019-03-12T08:34:26.536Z,66.10
2019-03-12T08:37:25.199Z,65.70
2019-03-12T08:40:51.938Z,66.10
2019-03-12T08:46:20.602Z,65.60
2019-03-12T08:48:50.091Z,65.90
2019-03-12T08:55:17.817Z,65.30
2019-03-12T09:19:51.534Z,65.10
2019-03-12T09:22:45.310Z,63.80
2019-03-12T09:28:48.501Z,63.90
2019-03-12T09:31:33.605Z,65.00
2019-03-12T09:34:12.892Z,65.70
2019-03-12T09:36:46.147Z,65.00
2019-03-12T09:39:24.933Z,64.70
2019-03-12T09:42:05.454Z,65.30
2019-03-12T09:47:55.411Z,64.60
2019-03-12T09:50:28.711Z,65.00
2019-03-12T09:56:21.275Z,63.80
2019-03-12T09:59:03.927Z,63.80
2019-03-12T10:02:02.869Z,64.50
2019-03-12T10:04:25.639Z,63.90
2019-03-12T10:07:11.924Z,63.20
2019-03-12T10:09:58.536Z,63.60
2019-03-12T10:12:41.395Z,62.90
2019-03-12T10:15:28.125Z,63.90
2019-03-12T10:18:10.105Z,64.20
2019-03-12T10:20:55.219Z,64.20
2019-03-12T10:23:43.576Z,64.20
2019-03-12T10:26:48.072Z,63.40
2019-03-12T10:48:39.275Z,64.10
2019-03-12T10:51:14.224Z,64.10
2019-03-12T10:56:48.949Z,63.30
2019-03-12T10:59:32.697Z,63.40
2019-03-12T11:02:07.671Z,63.40
2019-03-12T11:04:40.897Z,64.00
2019-03-12T11:07:22.117Z,63.60
2019-03-12T11:12:46.574Z,64.30
2019-03-12T11:15:16.499Z,63.50
2019-03-12T11:17:50.081Z,63.70
2019-03-12T11:20:26.341Z,64.60
2019-03-12T11:22:55.626Z,63.80
2019-03-12T11:25:27.759Z,64.00
2019-03-12T11:27:54.796Z,64.20
2019-03-12T11:30:23.523Z,63.10
2019-03-12T11:32:52.204Z,61.80
2019-03-12T11:35:21.016Z,61.90
2019-03-12T11:37:51.240Z,62.30
2019-03-12T11:40:25.722Z,63.20
2019-03-12T11:42:55.677Z,61.90
2019-03-12T11:45:35.701Z,63.60
2019-03-12T11:47:54.744Z,63.40
2019-03-12T11:50:25.037Z,63.00
2019-03-12T11:52:57.833Z,63.20
2019-03-12T11:55:24.300Z,61.90
2019-03-12T11:57:53.079Z,62.20
2019-03-12T12:00:34.174Z,61.30
2019-03-12T12:03:02.998Z,61.20
2019-03-12T12:05:33.848Z,61.80
2019-03-12T12:08:02.583Z,61.70
2019-03-12T12:10:33.694Z,61.80
2019-03-12T12:13:02.513Z,60.70
2019-03-12T12:15:31.735Z,61.80
2019-03-12T12:18:00.438Z,61.00
2019-03-12T12:20:30.437Z,60.70
2019-03-12T12:22:59.419Z,60.80
2019-03-12T12:25:28.069Z,60.00
2019-03-12T12:27:56.789Z,60.40
2019-03-12T12:30:25.569Z,60.00
2019-03-12T12:33:03.142Z,60.00
2019-03-12T12:35:31.923Z,60.30
2019-03-12T12:38:04.077Z,60.00
2019-03-12T12:40:32.794Z,60.30
2019-03-12T12:43:03.015Z,61.00
2019-03-12T12:45:39.833Z,59.40
2019-03-12T12:48:08.840Z,60.20
2019-03-12T12:50:37.546Z,59.70
2019-03-12T12:53:06.439Z,59.50
2019-03-12T12:55:35.238Z,58.00
2019-03-12T12:58:03.999Z,57.50
2019-03-12T13:00:32.680Z,56.80
2019-03-12T13:03:01.415Z,57.30
2019-03-12T13:05:30.221Z,57.50
2019-03-12T13:07:59.005Z,57.80
2019-03-12T13:10:32.789Z,58.60
2019-03-12T13:13:01.383Z,58.80
2019-03-12T13:15:30.081Z,59.50
2019-03-12T13:17:58.879Z,58.30
2019-03-12T13:20:27.591Z,58.90
2019-03-12T13:22:56.337Z,58.20
2019-03-12T13:25:25.429Z,58.50
2019-03-12T13:27:54.244Z,57.70
2019-03-12T13:30:26.529Z,57.90
2019-03-12T13:32:55.407Z,57.80
2019-03-12T13:35:28.554Z,57.80
2019-03-12T13:37:59.104Z,58.50
2019-03-12T13:40:28.631Z,59.00
2019-03-12T13:42:57.341Z,59.00
2019-03-12T13:45:30.161Z,59.00
2019-03-12T13:47:59.074Z,60.50
2019-03-12T13:50:27.913Z,59.90
2019-03-12T13:53:01.056Z,59.00
2019-03-12T13:55:29.887Z,58.40
2019-03-12T13:58:00.675Z,58.50
2019-03-12T14:00:35.910Z,58.90
2019-03-12T14:03:10.012Z,58.70
2019-03-12T14:05:42.113Z,57.90
2019-03-12T14:08:10.836Z,59.00
2019-03-12T14:10:39.640Z,58.70
2019-03-12T14:13:08.506Z,58.70
2019-03-12T14:15:38.858Z,58.70
2019-03-12T14:18:07.732Z,60.00
2019-03-12T14:20:54.413Z,58.80
2019-03-12T14:23:25.702Z,59.20
2019-03-12T14:25:54.364Z,60.40
2019-03-12T14:28:23.095Z,61.10
2019-03-12T14:30:51.916Z,60.70
2019-03-12T14:33:20.699Z,60.40
2019-03-12T14:35:51.765Z,60.20
2019-03-12T14:38:19.984Z,60.50
2019-03-12T14:40:48.720Z,61.10
2019-03-12T14:43:17.614Z,61.90
2019-03-12T14:45:51.176Z,63.30
2019-03-12T14:48:38.944Z,63.20
2019-03-12T14:51:19.814Z,63.60
2019-03-12T14:53:51.580Z,63.50
2019-03-12T14:56:20.836Z,64.20
2019-03-12T14:58:51.271Z,64.70
2019-03-12T15:01:19.998Z,64.50
2019-03-12T15:03:48.640Z,64.40
2019-03-12T15:06:17.282Z,65.10
2019-03-12T15:08:46.100Z,64.60
2019-03-12T15:11:14.849Z,65.00
2019-03-12T15:13:43.590Z,65.00
2019-03-12T15:16:12.277Z,65.20
2019-03-12T15:18:40.895Z,64.70
2019-03-12T15:21:09.629Z,65.30
2019-03-12T15:23:38.337Z,64.50
2019-03-12T15:26:07.044Z,64.20
2019-03-12T15:28:35.790Z,64.80
2019-03-12T15:31:04.522Z,64.40
2019-03-12T15:33:33.193Z,63.70
2019-03-12T15:36:01.815Z,63.60
2019-03-12T15:38:30.677Z,63.90
2019-03-12T15:40:59.451Z,63.70
2019-03-12T15:43:28.110Z,63.30
2019-03-12T15:45:56.776Z,63.50
2019-03-12T15:48:26.006Z,63.30
2019-03-12T15:50:54.783Z,63.70
2019-03-12T15:53:23.521Z,63.80
2019-03-12T15:55:52.236Z,63.40
2019-03-12T15:58:20.824Z,63.50
2019-03-12T16:00:49.391Z,63.00
2019-03-12T16:03:18.113Z,63.90
2019-03-12T16:05:46.835Z,64.00
2019-03-12T16:08:15.556Z,64.10
2019-03-12T16:10:56.801Z,64.50
2019-03-12T16:13:14.608Z,64.30
2019-03-12T16:15:43.322Z,64.80
2019-03-12T16:18:14.451Z,64.20
2019-03-12T16:20:42.309Z,64.30
2019-03-12T16:23:11.073Z,64.20
2019-03-12T16:25:39.948Z,63.90
2019-03-12T16:28:08.537Z,64.40
2019-03-12T16:30:37.272Z,64.60
2019-03-12T16:33:06.252Z,65.10
2019-03-12T16:35:34.812Z,67.00
2019-03-12T16:38:06.780Z,68.50
2019-03-12T16:40:33.915Z,70.50
2019-03-12T16:43:02.590Z,71.00
2019-03-12T16:45:31.248Z,73.70
2019-03-12T16:48:00.050Z,74.00
2019-03-12T16:50:28.741Z,75.20
2019-03-12T16:52:57.472Z,76.80
2019-03-12T16:55:26.138Z,75.40
2019-03-12T16:57:54.793Z,78.00
2019-03-12T17:00:23.604Z,77.90
2019-03-12T17:02:52.316Z,81.90
2019-03-12T17:05:22.500Z,82.20
2019-03-12T17:07:51.080Z,83.00
2019-03-12T17:10:20.690Z,85.80
2019-03-12T17:12:49.442Z,86.30
2019-03-12T17:15:20.674Z,87.40
2019-03-12T17:17:49.339Z,87.30
2019-03-12T17:20:20.952Z,87.70
2019-03-12T17:22:49.762Z,88.20
2019-03-12T17:25:18.333Z,86.10
2019-03-12T17:27:47.093Z,88.90
2019-03-12T17:30:23.020Z,87.30
2019-03-12T17:32:51.561Z,88.50
2019-03-12T17:35:28.993Z,90.10
2019-03-12T17:37:57.713Z,90.30
2019-03-12T17:40:26.264Z,91.40
2019-03-12T17:42:56.996Z,91.60
2019-03-12T17:45:25.536Z,91.80
2019-03-12T17:47:54.194Z,92.70
2019-03-12T17:50:22.922Z,93.00
2019-03-12T17:52:51.643Z,93.50
2019-03-12T17:55:20.368Z,93.80
2019-03-12T17:57:50.689Z,93.90
2019-03-12T18:00:27.928Z,94.20
2019-03-12T18:02:55.795Z,92.70
2019-03-12T18:05:24.546Z,93.20
2019-03-12T18:07:53.101Z,93.40
2019-03-12T18:10:21.754Z,94.10
2019-03-12T18:12:50.442Z,93.90
2019-03-12T18:15:20.140Z,94.30
2019-03-12T18:17:49.102Z,94.20
2019-03-12T18:20:18.951Z,93.50
2019-03-12T18:22:47.897Z,93.80
2019-03-12T18:25:28.718Z,94.00
2019-03-12T18:28:00.296Z,93.90
2019-03-12T18:30:29.252Z,92.90
2019-03-12T18:32:58.168Z,93.60
2019-03-12T18:35:27.150Z,93.40
2019-03-12T18:37:55.754Z,93.90
2019-03-12T18:40:26.576Z,93.70
2019-03-12T18:42:56.805Z,94.20
2019-03-12T18:45:27.587Z,93.90
2019-03-12T18:48:09.252Z,93.80
2019-03-12T18:50:42.779Z,94.20
2019-03-12T18:53:13.762Z,93.80
2019-03-12T18:55:48.264Z,93.90
2019-03-12T18:58:24.336Z,93.50
2019-03-12T19:00:56.352Z,93.40
2019-03-12T19:03:24.934Z,93.70
2019-03-12T19:05:53.568Z,93.60
2019-03-12T19:08:30.618Z,93.40
2019-03-12T19:10:59.240Z,93.30
2019-03-12T19:13:27.980Z,93.60
2019-03-12T19:15:56.653Z,93.40
2019-03-12T19:18:25.252Z,92.90
2019-03-12T19:20:59.128Z,93.30
2019-03-12T19:23:27.754Z,93.10
2019-03-12T19:26:00.086Z,93.20
2019-03-12T19:28:30.522Z,92.90
2019-03-12T19:31:00.834Z,92.70
2019-03-12T19:33:35.624Z,92.70
2019-03-12T19:36:05.860Z,92.80
2019-03-12T19:38:34.564Z,92.80
2019-03-12T19:41:04.255Z,92.90
2019-03-12T19:43:32.818Z,92.90
2019-03-12T19:46:01.541Z,92.60
2019-03-12T19:48:30.270Z,92.30
2019-03-12T19:50:59.240Z,92.00
2019-03-12T19:53:28.065Z,92.00
2019-03-12T19:55:59.998Z,91.80
2019-03-12T19:58:30.188Z,92.10
2019-03-12T20:01:00.426Z,91.60
2019-03-12T20:03:29.216Z,91.60
2019-03-12T20:05:57.888Z,91.30
2019-03-12T20:08:26.604Z,91.20
2019-03-12T20:11:17.794Z,91.20
2019-03-12T20:14:08.836Z,91.10
2019-03-12T20:17:09.290Z,91.20
2019-03-12T20:19:45.110Z,91.00
2019-03-12T20:22:52.006Z,90.60
2019-03-12T20:25:32.354Z,90.90
2019-03-12T20:28:06.792Z,91.00
2019-03-12T20:31:11.653Z,90.80
2019-03-12T20:37:14.240Z,90.80
2019-03-12T20:40:14.646Z,90.70
2019-03-12T20:43:05.889Z,90.80
2019-03-12T20:45:54.378Z,90.70
2019-03-12T20:48:54.955Z,90.60
2019-03-12T20:52:00.004Z,90.60
2019-03-12T20:54:51.618Z,90.70
2019-03-12T20:57:56.139Z,90.70
2019-03-12T21:00:36.942Z,90.80
2019-03-12T21:03:40.313Z,90.90
2019-03-12T21:06:43.096Z,91.00
2019-03-12T21:09:48.298Z,91.00
2019-03-12T21:12:36.557Z,91.40
2019-03-12T21:15:34.631Z,91.30
2019-03-12T21:18:17.492Z,91.20
2019-03-12T21:21:23.781Z,91.20
2019-03-12T21:24:07.309Z,91.10
2019-03-12T21:30:01.766Z,91.10
2019-03-12T21:32:30.621Z,90.80
2019-03-12T21:34:59.417Z,90.60
2019-03-12T21:37:28.129Z,90.50
2019-03-12T21:39:56.964Z,90.50
2019-03-12T21:42:28.937Z,90.30
2019-03-12T21:44:57.797Z,90.10
2019-03-12T21:47:26.541Z,89.70
2019-03-12T21:49:55.257Z,90.00
2019-03-12T21:52:24.010Z,89.40
2019-03-12T21:54:52.749Z,89.20
2019-03-12T21:57:21.568Z,89.40
2019-03-12T21:59:50.330Z,89.70
2019-03-12T22:02:19.125Z,89.50
2019-03-12T22:04:47.820Z,89.70
2019-03-12T22:07:16.487Z,89.20
2019-03-12T22:09:45.289Z,89.60
2019-03-12T22:12:14.008Z,89.60
2019-03-12T22:14:42.734Z,89.30
2019-03-12T22:17:11.490Z,89.30
2019-03-12T22:19:40.261Z,89.00
2019-03-12T22:22:19.473Z,88.80
2019-03-12T22:24:48.201Z,89.20
2019-03-12T22:27:16.911Z,89.40
2019-03-12T22:29:45.467Z,89.60
2019-03-12T22:32:14.137Z,89.10
2019-03-12T22:34:42.841Z,88.80
2019-03-12T22:37:11.594Z,88.80
2019-03-12T22:39:40.231Z,88.80
2019-03-12T22:42:08.981Z,88.80
2019-03-12T22:44:37.641Z,88.20
2019-03-12T22:47:06.337Z,87.90
2019-03-12T22:49:35.053Z,88.70
2019-03-12T22:52:03.876Z,87.80
2019-03-12T22:54:38.355Z,87.40
2019-03-12T22:57:09.015Z,87.50
2019-03-12T22:59:37.703Z,87.50
2019-03-12T23:02:06.517Z,87.80
2019-03-12T23:04:35.119Z,87.70
2019-03-12T23:07:03.989Z,87.50
2019-03-12T23:09:34.360Z,88.30
2019-03-12T23:24:24.787Z,89.30
2019-03-12T23:27:12.532Z,89.50
2019-03-12T23:29:45.921Z,89.30
2019-03-12T23:32:55.867Z,89.50
2019-03-12T23:35:38.045Z,89.50
2019-03-12T23:37:52.547Z,89.40
2019-03-12T23:43:50.065Z,88.90
